Clio, South Carolina
Current Conditions -  °F | °C
As of 11:15 AM on Thursday 23 Oct 2014 (Local Time) from KBBP Reporting Station
Clear Clear  
Wind Chill: 63°   Ceiling: Unl
Heat Index: 63°   Visibility: 10mi
Dew Point: 34°   Wind: 9mph
Humidity: 34%   Direction: 330°NNW
Pressure: 30.07"   Gusts: NA
Location:  34.58°N, 79.55°W
Report Text: KBBP 231515Z AUTO 33008KT 10SM CLR 17/01 A3007 RMK AO2
Loading
Personal Weather Stations






























Interactive Weather Map
Tropical Storm Tracking
New forecast layout! Learn more

10-Day Weather Forecast

Advertisements
Track Severe Weather on mobile